Accra/Kotoka

Airport
ICAO code: 
DGAA
Summary
ICAO Region: 
AFI
Territory: 
Location: 
Accra,
Coordinates: 
Aerial View: 
5° 36' 18.683" N, 0° 10' 0.43" W
Metar
Observation
DGAA 052300Z 21008KT 9999 SCT010 29/25 Q1012 NOSIG
Station
Accra
Date/Time
2021-12-05 23:00:00
Wind direction
210°
Wind speed
08 kts
Lowest cloud amount
scattered clouds
Temperature
29°C
Dew point
25°C
Humidity
79%
QNH
1012 hPa
Weather condition
n/a

Description

International airport serving the capital of Ghana.

Climatology

Tropical Savanna climate (Köppen climate classification Aw)

Runways

Designator Length Width Surface Rops
3/21 3403 61 ASP Yes/Yes
Airport map: 
Aerial View: 

SKYbrary Partners:

Safety knowledge contributed by: